createdAt,value
2019-03-05T00:01:56.780Z,81.10
2019-03-05T00:04:29.325Z,84.00
2019-03-05T00:07:02.830Z,84.90
2019-03-05T00:09:35.597Z,86.60
2019-03-05T00:12:09.298Z,87.30
2019-03-05T00:14:42.036Z,89.10
2019-03-05T00:17:14.456Z,90.30
2019-03-05T00:19:47.383Z,91.10
2019-03-05T00:22:20.166Z,91.00
2019-03-05T00:25:03.826Z,91.40
2019-03-05T00:27:42.718Z,92.10
2019-03-05T00:30:38.674Z,91.60
2019-03-05T00:33:35.391Z,91.90
2019-03-05T00:36:34.460Z,92.70
2019-03-05T00:39:37.406Z,92.50
2019-03-05T00:42:48.177Z,93.10
2019-03-05T00:45:45.685Z,93.40
2019-03-05T00:48:48.738Z,92.90
2019-03-05T00:51:46.688Z,92.80
2019-03-05T00:55:00.801Z,93.00
2019-03-05T00:57:45.621Z,93.50
2019-03-05T01:00:58.339Z,93.60
2019-03-05T01:04:04.897Z,93.60
2019-03-05T01:06:37.726Z,93.80
2019-03-05T01:09:18.157Z,93.90
2019-03-05T01:11:51.797Z,92.80
2019-03-05T01:14:26.186Z,92.90
2019-03-05T01:16:58.864Z,91.90
2019-03-05T01:19:31.637Z,92.40
2019-03-05T01:22:05.009Z,92.80
2019-03-05T01:24:38.231Z,92.70
2019-03-05T01:27:11.567Z,92.90
2019-03-05T01:29:44.963Z,92.50
2019-03-05T01:32:24.260Z,93.60
2019-03-05T01:35:09.424Z,93.20
2019-03-05T01:37:41.656Z,93.50
2019-03-05T01:40:51.085Z,93.20
2019-03-05T01:43:23.921Z,93.00
2019-03-05T01:45:56.568Z,93.10
2019-03-05T01:48:29.727Z,93.40
2019-03-05T01:51:02.567Z,93.00
2019-03-05T01:53:35.563Z,93.90
2019-03-05T01:56:08.312Z,93.90
2019-03-05T01:58:40.909Z,94.20
2019-03-05T02:01:16.430Z,94.50
2019-03-05T02:03:49.601Z,94.30
2019-03-05T02:06:22.270Z,94.50
2019-03-05T02:08:54.925Z,94.90
2019-03-05T02:11:27.309Z,95.20
2019-03-05T02:13:59.763Z,95.30
2019-03-05T02:16:32.033Z,94.70
2019-03-05T02:19:42.458Z,94.10
2019-03-05T02:22:38.397Z,93.50
2019-03-05T02:25:42.103Z,91.80
2019-03-05T02:28:46.191Z,91.80
2019-03-05T02:32:22.743Z,92.10
2019-03-05T02:35:19.465Z,92.30
2019-03-05T02:38:19.994Z,92.00
2019-03-05T02:41:19.804Z,91.40
2019-03-05T02:44:09.827Z,91.20
2019-03-05T02:46:57.841Z,90.90
2019-03-05T02:50:15.641Z,90.30
2019-03-05T02:53:03.027Z,89.40
2019-03-05T02:55:55.979Z,87.20
2019-03-05T02:58:25.161Z,85.70
2019-03-05T03:01:25.742Z,84.50
2019-03-05T03:04:02.257Z,83.20
2019-03-05T03:06:36.430Z,83.00
2019-03-05T03:09:51.932Z,82.60
2019-03-05T03:12:24.261Z,81.50
2019-03-05T03:14:56.808Z,81.20
2019-03-05T03:17:29.529Z,81.50
2019-03-05T03:20:01.959Z,82.10
2019-03-05T03:22:37.445Z,82.00
2019-03-05T03:25:11.080Z,81.60
2019-03-05T03:27:43.458Z,81.10
2019-03-05T03:30:17.594Z,83.50
2019-03-05T03:32:50.283Z,83.20
2019-03-05T03:35:23.239Z,83.50
2019-03-05T03:37:55.964Z,82.00
2019-03-05T03:40:29.686Z,80.70
2019-03-05T03:43:02.572Z,81.20
2019-03-05T03:45:35.478Z,80.60
2019-03-05T03:48:08.094Z,79.10
2019-03-05T03:50:40.863Z,80.20
2019-03-05T03:53:28.535Z,80.60
2019-03-05T03:56:03.269Z,79.80
2019-03-05T03:58:36.197Z,79.90
2019-03-05T04:01:08.822Z,80.10
2019-03-05T04:03:41.890Z,80.00
2019-03-05T04:06:14.612Z,78.70
2019-03-05T04:08:47.254Z,78.60
2019-03-05T04:11:19.634Z,79.30
2019-03-05T04:13:52.476Z,79.50
2019-03-05T04:16:25.743Z,80.10
2019-03-05T04:18:59.705Z,80.90
2019-03-05T04:21:32.364Z,81.90
2019-03-05T04:24:05.376Z,82.60
2019-03-05T04:26:38.152Z,84.20
2019-03-05T04:29:10.837Z,82.80
2019-03-05T04:31:43.307Z,81.20
2019-03-05T04:34:16.302Z,79.60
2019-03-05T04:36:49.153Z,79.80
2019-03-05T04:39:21.646Z,79.50
2019-03-05T04:41:55.101Z,77.50
2019-03-05T04:44:33.270Z,78.10
2019-03-05T04:47:06.269Z,77.40
2019-03-05T04:49:46.288Z,77.80
2019-03-05T04:52:23.693Z,76.40
2019-03-05T04:54:56.577Z,75.40
2019-03-05T04:57:28.780Z,75.50
2019-03-05T05:00:01.395Z,76.80
2019-03-05T05:02:34.014Z,76.00
2019-03-05T05:05:06.769Z,75.80
2019-03-05T05:08:00.052Z,75.90
2019-03-05T05:10:32.995Z,75.10
2019-03-05T05:13:05.718Z,75.20
2019-03-05T05:15:38.468Z,76.30
2019-03-05T05:18:11.266Z,75.60
2019-03-05T05:20:44.098Z,74.20
2019-03-05T05:23:16.609Z,74.30
2019-03-05T05:25:49.910Z,74.60
2019-03-05T05:28:22.410Z,73.90
2019-03-05T05:30:55.063Z,73.70
2019-03-05T05:33:27.870Z,73.80
2019-03-05T05:36:00.912Z,74.10
2019-03-05T05:38:33.185Z,75.10
2019-03-05T05:41:05.969Z,74.60
2019-03-05T05:43:38.680Z,75.10
2019-03-05T05:46:11.785Z,76.40
2019-03-05T05:48:44.496Z,77.40
2019-03-05T05:51:17.778Z,77.90
2019-03-05T05:53:50.787Z,77.20
2019-03-05T05:56:23.159Z,78.50
2019-03-05T05:58:55.989Z,78.80
2019-03-05T06:01:28.577Z,80.50
2019-03-05T06:04:01.259Z,79.60
2019-03-05T06:06:33.465Z,80.50
2019-03-05T06:09:06.567Z,80.20
2019-03-05T06:11:39.429Z,80.90
2019-03-05T06:14:12.384Z,80.10
2019-03-05T06:16:45.264Z,81.10
2019-03-05T06:19:18.019Z,80.90
2019-03-05T06:21:50.734Z,81.80
2019-03-05T06:24:23.382Z,82.80
2019-03-05T06:26:55.967Z,83.50
2019-03-05T06:29:28.357Z,83.60
2019-03-05T06:32:00.997Z,84.20
2019-03-05T06:34:35.453Z,84.30
2019-03-05T06:37:07.879Z,84.00
2019-03-05T06:39:41.072Z,85.60
2019-03-05T06:42:13.575Z,86.90
2019-03-05T06:44:46.290Z,86.90
2019-03-05T06:47:19.645Z,87.90
2019-03-05T06:49:52.541Z,88.30
2019-03-05T06:52:25.481Z,88.80
2019-03-05T06:54:58.149Z,89.10
2019-03-05T06:57:31.222Z,89.70
2019-03-05T07:00:03.997Z,88.70
2019-03-05T07:02:37.027Z,89.90
2019-03-05T07:05:29.065Z,90.20
2019-03-05T07:08:01.810Z,90.20
2019-03-05T07:10:49.885Z,90.70
2019-03-05T07:13:24.363Z,90.80
2019-03-05T07:16:22.720Z,91.40
2019-03-05T07:19:11.097Z,91.50
2019-03-05T07:22:33.207Z,91.80
2019-03-05T07:25:06.742Z,92.40
2019-03-05T07:27:45.498Z,93.30
2019-03-05T07:30:25.578Z,94.70
2019-03-05T07:32:59.260Z,96.30
2019-03-05T07:35:33.191Z,97.60
2019-03-05T07:38:05.677Z,98.20
2019-03-05T07:40:38.196Z,98.50
2019-03-05T07:43:11.167Z,98.20
2019-03-05T07:45:44.152Z,97.60
2019-03-05T07:48:16.824Z,96.90
2019-03-05T07:50:49.311Z,96.10
2019-03-05T07:53:21.922Z,95.80
2019-03-05T07:55:54.845Z,95.60
2019-03-05T07:58:27.406Z,95.50
2019-03-05T08:01:00.063Z,95.30
2019-03-05T08:03:32.564Z,96.10
2019-03-05T08:06:05.235Z,97.40
2019-03-05T08:09:12.545Z,98.60
2019-03-05T08:11:44.978Z,99.20
2019-03-05T08:14:50.121Z,99.70
2019-03-05T08:17:23.552Z,99.90
2019-03-05T08:19:56.262Z,98.90
2019-03-05T08:22:28.730Z,99.20
2019-03-05T08:25:01.184Z,99.70
2019-03-05T08:27:33.877Z,99.90
2019-03-05T08:30:14.197Z,99.90
2019-03-05T08:32:42.277Z,99.90
2019-03-05T08:35:15.205Z,99.90
2019-03-05T08:37:47.940Z,99.90
2019-03-05T08:40:21.180Z,99.90
2019-03-05T08:42:53.947Z,99.90
2019-03-05T08:45:29.651Z,99.90
2019-03-05T08:48:01.335Z,99.90
2019-03-05T08:50:34.801Z,99.90
2019-03-05T08:53:07.434Z,99.90
2019-03-05T08:55:40.414Z,99.90
2019-03-05T08:58:13.003Z,99.90
2019-03-05T09:00:48.063Z,99.90
2019-03-05T09:03:20.598Z,99.70
2019-03-05T09:05:52.745Z,99.20
2019-03-05T09:08:25.643Z,98.60
2019-03-05T09:10:58.692Z,98.70
2019-03-05T09:13:33.002Z,98.60
2019-03-05T09:16:05.380Z,99.70
2019-03-05T09:18:37.757Z,99.90
2019-03-05T09:21:11.062Z,99.90
2019-03-05T09:23:43.901Z,99.90
2019-03-05T09:26:16.897Z,99.90
2019-03-05T09:28:49.569Z,99.90
2019-03-05T09:31:22.398Z,99.90
2019-03-05T09:33:54.652Z,99.90
2019-03-05T09:36:27.603Z,99.90
2019-03-05T09:39:03.074Z,99.90
2019-03-05T09:41:35.075Z,99.90
2019-03-05T09:44:07.741Z,99.90
2019-03-05T09:46:40.655Z,99.90
2019-03-05T09:49:13.263Z,99.90
2019-03-05T09:51:46.247Z,99.90
2019-03-05T09:54:19.170Z,99.90
2019-03-05T09:56:51.930Z,99.90
2019-03-05T09:59:24.591Z,99.90
2019-03-05T10:01:58.169Z,99.90
2019-03-05T10:04:31.430Z,99.90
2019-03-05T10:07:04.823Z,99.90
2019-03-05T10:09:37.488Z,99.90
2019-03-05T10:12:09.978Z,99.90
2019-03-05T10:14:42.892Z,99.90
2019-03-05T10:17:15.502Z,99.90
2019-03-05T10:19:48.185Z,99.90
2019-03-05T10:22:21.427Z,99.90
2019-03-05T10:25:05.684Z,99.90
2019-03-05T10:27:30.811Z,99.90
2019-03-05T10:30:03.402Z,99.90
2019-03-05T10:32:36.568Z,99.90
2019-03-05T10:35:09.516Z,99.90
2019-03-05T10:37:42.337Z,99.90
2019-03-05T10:40:17.056Z,99.90
2019-03-05T10:42:49.431Z,99.90
2019-03-05T10:45:22.717Z,99.90
2019-03-05T10:47:55.608Z,99.90
2019-03-05T10:50:28.614Z,99.90
2019-03-05T10:53:01.098Z,99.90
2019-03-05T10:55:33.889Z,99.90
2019-03-05T10:58:07.901Z,99.90
2019-03-05T11:00:43.553Z,99.90
2019-03-05T11:03:16.103Z,99.90
2019-03-05T11:05:49.238Z,99.90
2019-03-05T11:08:24.735Z,99.90
2019-03-05T11:10:57.553Z,99.90
2019-03-05T11:13:30.515Z,99.90
2019-03-05T11:16:03.564Z,99.90
2019-03-05T11:18:36.820Z,99.90
2019-03-05T11:21:10.298Z,99.90
2019-03-05T11:23:42.933Z,99.90
2019-03-05T11:26:15.821Z,99.90
2019-03-05T11:28:49.278Z,99.90
2019-03-05T11:31:26.231Z,99.90
2019-03-05T11:33:58.641Z,99.90
2019-03-05T11:36:31.745Z,99.90
2019-03-05T11:39:05.059Z,99.90
2019-03-05T11:41:37.454Z,99.90
2019-03-05T11:44:09.971Z,99.90
2019-03-05T11:46:42.457Z,99.90
2019-03-05T11:49:15.091Z,99.90
2019-03-05T11:51:47.327Z,99.90
2019-03-05T11:54:19.876Z,99.90
2019-03-05T11:56:52.609Z,99.90
2019-03-05T11:59:25.328Z,99.90
2019-03-05T12:01:58.147Z,99.90
2019-03-05T12:04:31.471Z,99.90
2019-03-05T12:07:04.320Z,99.90
2019-03-05T12:09:36.789Z,99.90
2019-03-05T12:12:09.680Z,99.90
2019-03-05T12:14:42.608Z,99.90
2019-03-05T12:17:14.938Z,99.90
2019-03-05T12:19:47.513Z,99.90
2019-03-05T12:22:20.297Z,99.90
2019-03-05T12:24:52.843Z,99.90
2019-03-05T12:27:25.288Z,99.90
2019-03-05T12:29:57.701Z,99.90
2019-03-05T12:32:30.514Z,99.90
2019-03-05T12:35:03.283Z,99.90
2019-03-05T12:37:36.309Z,99.90
2019-03-05T12:40:10.080Z,99.90
2019-03-05T12:42:42.592Z,99.90
2019-03-05T12:45:16.054Z,99.90
2019-03-05T12:47:48.623Z,99.90
2019-03-05T12:50:22.195Z,99.90
2019-03-05T12:52:55.343Z,99.90
2019-03-05T12:55:27.944Z,99.90
2019-03-05T12:58:00.824Z,99.90
2019-03-05T13:00:34.040Z,99.90
2019-03-05T13:03:06.975Z,99.90
2019-03-05T13:05:40.049Z,99.90
2019-03-05T13:08:12.971Z,99.90
2019-03-05T13:10:46.090Z,99.90
2019-03-05T13:13:18.778Z,99.90
2019-03-05T13:15:52.845Z,99.90
2019-03-05T13:18:26.767Z,99.90
2019-03-05T13:21:03.451Z,99.90
2019-03-05T13:23:36.313Z,99.90
2019-03-05T13:26:22.080Z,99.90
2019-03-05T13:28:54.858Z,99.90
2019-03-05T13:31:27.673Z,99.90
2019-03-05T13:34:00.731Z,99.90
2019-03-05T13:36:33.929Z,99.90
2019-03-05T13:39:07.793Z,99.90
2019-03-05T13:41:40.922Z,99.90
2019-03-05T13:44:34.688Z,99.90
2019-03-05T13:47:09.515Z,99.90
2019-03-05T13:50:08.432Z,99.40
2019-03-05T13:53:30.126Z,98.90
2019-03-05T13:56:42.215Z,98.30
2019-03-05T13:59:45.205Z,96.30
2019-03-05T14:05:45.842Z,95.90
2019-03-05T14:08:45.005Z,96.10
2019-03-05T14:11:17.746Z,95.20
2019-03-05T14:13:49.965Z,94.00
2019-03-05T14:16:23.446Z,93.30
2019-03-05T14:18:56.255Z,92.40
2019-03-05T14:21:29.181Z,92.10
2019-03-05T14:24:02.146Z,92.20
2019-03-05T14:26:35.119Z,91.70
2019-03-05T14:29:07.843Z,92.00
2019-03-05T14:31:40.682Z,91.10
2019-03-05T14:34:13.562Z,91.50
2019-03-05T14:36:46.354Z,91.90
2019-03-05T14:39:30.037Z,92.30
2019-03-05T14:42:03.299Z,93.30
2019-03-05T14:44:39.882Z,92.60
2019-03-05T14:47:10.646Z,91.50
2019-03-05T14:49:43.447Z,92.30
2019-03-05T14:52:16.248Z,91.20
2019-03-05T14:54:48.894Z,90.20
2019-03-05T14:57:22.077Z,89.00
2019-03-05T14:59:54.640Z,88.70
2019-03-05T15:02:27.452Z,88.50
2019-03-05T15:05:00.183Z,88.70
2019-03-05T15:07:33.085Z,88.30
2019-03-05T15:10:07.701Z,86.10
2019-03-05T15:12:41.573Z,84.40
2019-03-05T15:15:17.608Z,83.20
2019-03-05T15:17:50.132Z,81.40
2019-03-05T15:20:22.765Z,82.20
2019-03-05T15:22:57.506Z,82.50
2019-03-05T15:25:30.284Z,81.50
2019-03-05T15:28:02.986Z,83.00
2019-03-05T15:30:35.613Z,82.60
2019-03-05T15:33:08.443Z,85.80
2019-03-05T15:35:40.991Z,85.30
2019-03-05T15:38:18.553Z,81.20
2019-03-05T15:40:51.518Z,81.70
2019-03-05T15:43:24.456Z,81.30
2019-03-05T15:45:56.942Z,80.50
2019-03-05T15:48:29.475Z,81.40
2019-03-05T15:51:02.189Z,82.70
2019-03-05T15:53:34.539Z,84.30
2019-03-05T15:56:21.260Z,86.50
2019-03-05T15:58:54.205Z,90.00
2019-03-05T16:01:27.081Z,90.40
2019-03-05T16:04:08.655Z,90.30
2019-03-05T16:06:41.417Z,90.30
2019-03-05T16:09:19.797Z,90.80
2019-03-05T16:11:52.488Z,91.10
2019-03-05T16:14:29.613Z,91.30
2019-03-05T16:17:00.326Z,91.30
2019-03-05T16:19:32.786Z,92.00
2019-03-05T16:22:18.177Z,92.10
2019-03-05T16:24:48.191Z,89.70
2019-03-05T16:29:57.161Z,90.10
2019-03-05T16:32:35.187Z,89.50
2019-03-05T16:35:20.291Z,88.40
2019-03-05T16:38:01.597Z,87.60
2019-03-05T16:40:51.784Z,84.90
2019-03-05T16:43:34.609Z,84.60
2019-03-05T16:46:22.846Z,83.20
2019-03-05T16:49:13.828Z,83.20
2019-03-05T16:52:21.930Z,77.90
2019-03-05T16:55:06.479Z,82.70
2019-03-05T16:58:10.641Z,85.50
2019-03-05T17:01:11.920Z,81.30
2019-03-05T17:04:18.507Z,76.20
2019-03-05T17:07:15.715Z,76.60
2019-03-05T17:10:01.407Z,74.60
2019-03-05T17:12:36.774Z,70.70
2019-03-05T17:15:10.996Z,71.20
2019-03-05T17:17:44.956Z,65.90
2019-03-05T17:20:22.770Z,63.20
2019-03-05T17:22:56.260Z,61.30
2019-03-05T17:25:36.296Z,62.80
2019-03-05T17:28:08.906Z,60.00
2019-03-05T17:30:42.097Z,60.70
2019-03-05T17:33:15.389Z,64.20
2019-03-05T17:35:48.252Z,59.40
2019-03-05T17:38:20.917Z,57.50
2019-03-05T17:40:55.123Z,55.00
2019-03-05T17:43:28.174Z,53.80
2019-03-05T17:46:01.096Z,53.80
2019-03-05T17:48:33.797Z,54.00
2019-03-05T17:51:06.256Z,54.70
2019-03-05T17:53:38.794Z,55.50
2019-03-05T17:56:11.549Z,54.20
2019-03-05T17:58:44.540Z,52.70
2019-03-05T18:01:17.325Z,51.90
2019-03-05T18:03:49.777Z,48.30
2019-03-05T18:06:22.584Z,46.90
2019-03-05T18:08:55.529Z,48.00
2019-03-05T18:11:28.249Z,49.70
2019-03-05T18:14:01.821Z,49.20
2019-03-05T18:16:36.397Z,48.40
2019-03-05T18:19:08.914Z,46.90
2019-03-05T18:21:41.714Z,46.90
2019-03-05T18:24:15.137Z,48.30
2019-03-05T18:26:47.693Z,49.30
2019-03-05T18:29:20.296Z,50.40
2019-03-05T18:31:53.498Z,52.40
2019-03-05T18:34:26.340Z,51.90
2019-03-05T18:36:58.848Z,50.30
2019-03-05T18:39:32.231Z,46.50
2019-03-05T18:42:05.691Z,44.60
2019-03-05T18:44:38.305Z,49.00
2019-03-05T18:47:11.242Z,51.10
2019-03-05T18:49:43.965Z,49.60
2019-03-05T18:52:16.483Z,49.10
2019-03-05T18:54:49.474Z,47.50
2019-03-05T18:57:22.069Z,47.70
2019-03-05T18:59:58.823Z,48.20
2019-03-05T19:02:31.542Z,46.70
2019-03-05T19:05:04.966Z,50.00
2019-03-05T19:07:37.234Z,48.10
2019-03-05T19:10:12.845Z,47.30
2019-03-05T19:12:46.035Z,48.20
2019-03-05T19:15:20.947Z,48.90
2019-03-05T19:17:53.793Z,47.90
2019-03-05T19:20:27.377Z,48.20
2019-03-05T19:23:00.077Z,46.50
2019-03-05T19:25:32.779Z,45.70
2019-03-05T19:28:06.264Z,46.30
2019-03-05T19:30:41.082Z,44.30
2019-03-05T19:33:13.785Z,45.70
2019-03-05T19:35:46.521Z,45.50
2019-03-05T19:38:19.103Z,45.90
2019-03-05T19:40:51.347Z,48.10
2019-03-05T19:43:23.973Z,47.60
2019-03-05T19:45:56.343Z,48.30
2019-03-05T19:48:28.853Z,48.40
2019-03-05T19:51:01.161Z,51.10
2019-03-05T19:53:33.823Z,51.90
2019-03-05T19:56:06.588Z,52.40
2019-03-05T19:58:39.640Z,51.00
2019-03-05T20:01:15.895Z,49.60
2019-03-05T20:03:48.478Z,49.20
2019-03-05T20:06:21.673Z,50.40
2019-03-05T20:08:54.490Z,51.40
2019-03-05T20:11:27.260Z,49.90
2019-03-05T20:13:59.750Z,49.90
2019-03-05T20:16:32.427Z,47.00
2019-03-05T20:19:05.482Z,47.50
2019-03-05T20:21:38.262Z,49.80
2019-03-05T20:24:10.982Z,49.60
2019-03-05T20:26:43.673Z,49.60
2019-03-05T20:29:16.203Z,50.80
2019-03-05T20:31:52.882Z,51.10
2019-03-05T20:34:25.201Z,52.80
2019-03-05T20:36:58.229Z,54.30
2019-03-05T20:39:30.988Z,55.30
2019-03-05T20:42:03.557Z,54.40
2019-03-05T20:44:36.494Z,54.60
2019-03-05T20:47:09.188Z,55.40
2019-03-05T20:49:42.873Z,55.80
2019-03-05T20:52:15.790Z,55.80
2019-03-05T20:54:48.729Z,55.40
2019-03-05T20:57:21.899Z,56.10
2019-03-05T20:59:54.649Z,56.40
2019-03-05T21:02:26.846Z,58.30
2019-03-05T21:05:00.144Z,58.20
2019-03-05T21:07:33.608Z,61.10
2019-03-05T21:10:07.168Z,63.40
2019-03-05T21:12:39.987Z,66.00
2019-03-05T21:15:12.984Z,73.00
2019-03-05T21:17:45.866Z,76.90
2019-03-05T21:20:18.605Z,81.20
2019-03-05T21:22:51.271Z,86.30
2019-03-05T21:25:23.959Z,88.90
2019-03-05T21:27:56.741Z,90.10
2019-03-05T21:30:29.532Z,92.80
2019-03-05T21:33:02.692Z,96.40
2019-03-05T21:35:35.647Z,98.60
2019-03-05T21:38:08.689Z,99.40
2019-03-05T21:40:41.751Z,99.90
2019-03-05T21:43:14.402Z,99.90
2019-03-05T21:45:47.451Z,99.90
2019-03-05T21:48:20.163Z,99.90
2019-03-05T21:50:52.975Z,99.90
2019-03-05T21:53:25.898Z,99.90
2019-03-05T21:55:58.890Z,99.90
2019-03-05T21:58:31.142Z,99.90
2019-03-05T22:01:03.612Z,99.90
2019-03-05T22:03:36.411Z,99.90
2019-03-05T22:06:09.048Z,99.90
2019-03-05T22:08:42.020Z,99.90
2019-03-05T22:11:15.038Z,99.90
2019-03-05T22:13:48.099Z,99.90
2019-03-05T22:16:21.141Z,99.90
2019-03-05T22:18:53.545Z,99.90
2019-03-05T22:21:26.297Z,99.90
2019-03-05T22:23:59.180Z,99.90
2019-03-05T22:26:31.955Z,99.90
2019-03-05T22:29:04.679Z,99.90
2019-03-05T22:31:37.294Z,99.90
2019-03-05T22:34:09.937Z,99.90
2019-03-05T22:36:42.352Z,99.90
2019-03-05T22:39:15.741Z,99.90
2019-03-05T22:41:48.753Z,99.90
2019-03-05T22:44:21.305Z,99.90
2019-03-05T22:46:53.691Z,99.90
2019-03-05T22:49:26.458Z,99.90
2019-03-05T22:51:59.348Z,99.90
2019-03-05T22:54:31.901Z,99.90
2019-03-05T22:57:04.271Z,99.90
2019-03-05T22:59:36.839Z,99.90
2019-03-05T23:02:11.007Z,99.90
2019-03-05T23:04:46.777Z,99.90
2019-03-05T23:07:19.857Z,99.90
2019-03-05T23:09:52.353Z,99.90
2019-03-05T23:12:25.828Z,99.90
2019-03-05T23:14:58.609Z,99.90
2019-03-05T23:17:31.360Z,99.90
2019-03-05T23:20:04.086Z,99.90
2019-03-05T23:22:36.813Z,99.90
2019-03-05T23:25:11.397Z,99.90
2019-03-05T23:27:44.406Z,99.90
2019-03-05T23:30:18.571Z,99.90
2019-03-05T23:32:52.558Z,99.90
2019-03-05T23:35:25.148Z,99.90
2019-03-05T23:37:57.556Z,99.90
2019-03-05T23:40:30.632Z,99.90
2019-03-05T23:43:03.824Z,99.90
2019-03-05T23:45:36.784Z,99.90
2019-03-05T23:48:10.141Z,99.90
2019-03-05T23:50:43.011Z,99.90
2019-03-05T23:53:17.657Z,99.90
2019-03-05T23:55:51.830Z,99.90
2019-03-05T23:58:25.615Z,99.90
